Time;durP1;ratioP1;P1;durP2;ratioP2;P2;SDS_P1;SDS_P2;PMS_P1;PMS_P2;Temp;Humidity;BMP_temperature;BMP_pressure;BME280_temperature;BME280_humidity;BME280_pressure;Samples;Min_cycle;Max_cycle;Signal;HPM_P1;HPM_P2
2022/07/17 00:00:00;;;;;;;9.60;8.70;;;;;;;23.11;53.78;98997.44;4974723;28;20164;-86
2022/07/17 00:02:25;;;;;;;11.93;8.90;;;;;;;22.83;53.45;98945.31;4974648;28;20343;-87
2022/07/17 00:04:51;;;;;;;9.60;8.80;;;;;;;24.80;53.60;99252.84;4974596;28;20165;-86
2022/07/17 00:07:16;;;;;;;9.40;8.43;;;;;;;22.37;53.58;98846.97;4989362;28;20242;-85
2022/07/17 00:09:42;;;;;;;9.87;8.60;;;;;;;23.67;53.68;99077.69;4989459;28;20172;-85
2022/07/17 00:12:07;;;;;;;9.70;8.90;;;;;;;23.71;54.16;99100.00;4989606;28;20539;-87
2022/07/17 00:14:33;;;;;;;9.77;8.80;;;;;;;22.74;53.46;98961.75;4974627;28;20195;-86
2022/07/17 00:16:58;;;;;;;10.03;8.57;;;;;;;23.23;53.86;99028.31;4974033;28;20168;-87
2022/07/17 00:19:25;;;;;;;11.73;9.33;;;;;;;22.50;53.98;98933.63;4974390;28;20239;-87
2022/07/17 00:21:50;;;;;;;13.70;10.80;;;;;;;24.07;54.05;99164.16;4974213;28;20352;-83
2022/07/17 00:24:19;;;;;;;12.37;11.17;;;;;;;25.36;54.61;99395.28;4973043;28;20675;-85
2022/07/17 00:26:47;;;;;;;12.03;10.83;;;;;;;24.15;55.36;99199.44;4974556;28;20156;-85
2022/07/17 00:29:12;;;;;;;12.03;10.83;;;;;;;23.75;55.17;99132.72;4974135;28;20178;-85
2022/07/17 00:31:38;;;;;;;14.00;11.20;;;;;;;23.29;55.22;99035.97;4974073;28;20161;-86
2022/07/17 00:34:03;;;;;;;11.43;10.27;;;;;;;22.93;55.61;98985.66;4973732;28;20164;-86
2022/07/17 00:36:29;;;;;;;13.00;11.30;;;;;;;22.45;55.80;98919.94;4973997;28;20244;-86
2022/07/17 00:38:54;;;;;;;12.20;10.87;;;;;;;23.03;55.84;99025.97;4973604;28;20251;-85
2022/07/17 00:41:19;;;;;;;11.90;10.80;;;;;;;23.42;56.28;99112.47;4973584;28;20262;-85
2022/07/17 00:43:45;;;;;;;11.63;10.53;;;;;;;21.87;56.44;98854.41;4973941;28;20251;-85
2022/07/17 00:46:11;;;;;;;11.53;10.40;;;;;;;24.67;56.52;99322.03;4973650;28;20184;-86
2022/07/17 00:48:36;;;;;;;13.23;11.00;;;;;;;21.67;57.11;98842.53;4988822;28;20183;-86
2022/07/17 00:51:02;;;;;;;12.43;11.20;;;;;;;22.62;57.04;98966.19;4973610;28;20172;-86
2022/07/17 00:53:31;;;;;;;12.03;10.83;;;;;;;24.86;57.43;99367.56;4972478;28;20230;-86
2022/07/17 00:55:58;;;;;;;12.60;10.50;;;;;;;25.02;56.72;99374.25;4973621;28;20172;-86
2022/07/17 00:58:24;;;;;;;11.93;10.83;;;;;;;24.32;57.67;99299.25;4973854;28;20164;-85
2022/07/17 01:00:53;;;;;;;11.43;10.23;;;;;;;24.16;58.07;99263.22;4974192;28;20164;-85
2022/07/17 01:03:20;;;;;;;11.70;10.60;;;;;;;24.43;58.08;99320.66;4972306;28;20227;-85
2022/07/17 01:05:47;;;;;;;11.63;10.53;;;;;;;21.50;58.20;98821.25;4988858;28;20180;-87
2022/07/17 01:08:12;;;;;;;11.60;10.47;;;;;;;23.45;58.86;99179.63;4988470;28;20179;-86
2022/07/17 01:10:38;;;;;;;11.57;10.47;;;;;;;22.39;59.12;99005.13;4988436;28;20180;-86
2022/07/17 01:13:04;;;;;;;11.13;10.03;;;;;;;22.91;58.44;99045.03;4973597;28;20156;-85
2022/07/17 01:15:31;;;;;;;11.70;10.60;;;;;;;24.89;58.77;99398.59;4972492;28;20184;-86
2022/07/17 01:17:58;;;;;;;11.13;10.03;;;;;;;22.41;59.14;98993.09;4973712;28;20540;-86
2022/07/17 01:20:23;;;;;;;11.43;10.27;;;;;;;22.26;59.88;98975.19;4973312;28;20168;-86
2022/07/17 01:22:50;;;;;;;13.07;10.70;;;;;;;24.71;60.27;99419.53;4973450;28;20207;-86
2022/07/17 01:25:20;;;;;;;12.33;11.03;;;;;;;23.08;61.10;99160.19;4973540;28;20617;-86
2022/07/17 01:27:46;;;;;;;12.97;11.73;;;;;;;23.61;62.41;99304.38;4973689;28;20164;-87
2022/07/17 01:30:11;;;;;;;12.30;11.10;;;;;;;21.31;63.58;98960.47;4973825;28;20168;-85
2022/07/17 01:32:39;;;;;;;14.27;12.23;;;;;;;22.70;64.29;99186.38;4974273;28;20156;-86
2022/07/17 01:35:06;;;;;;;13.10;11.80;;;;;;;23.59;64.54;99357.81;4989134;28;20251;-86
2022/07/17 01:37:31;;;;;;;13.40;12.10;;;;;;;24.00;64.56;99423.78;4982833;28;20285;-85
2022/07/17 01:39:57;;;;;;;15.27;12.80;;;;;;;22.31;64.65;99149.66;4978693;28;20196;-86
2022/07/17 01:42:24;;;;;;;14.17;12.77;;;;;;;20.66;64.17;98860.47;4976166;28;20192;-85
2022/07/17 01:44:50;;;;;;;13.93;12.53;;;;;;;22.85;63.89;99194.81;4972077;28;20609;-85
2022/07/17 01:47:16;;;;;;;14.27;12.80;;;;;;;24.10;64.78;99434.03;4973305;28;20257;-85
2022/07/17 01:49:53;;;;;;;14.97;13.27;;;;;;;23.78;65.35;99386.06;4973439;28;20589;-85
2022/07/17 01:52:20;;;;;;;16.73;13.60;;;;;;;23.24;65.56;99293.50;4976972;28;20164;-85
2022/07/17 01:54:45;;;;;;;15.67;14.03;;;;;;;23.65;65.55;99358.59;4974283;28;20247;-84
2022/07/17 01:57:11;;;;;;;15.13;13.70;;;;;;;23.57;65.90;99360.41;4983338;28;20179;-84
2022/07/17 01:59:38;;;;;;;15.50;14.00;;;;;;;23.23;65.83;99291.78;4973662;28;20614;-86
2022/07/17 02:02:05;;;;;;;15.37;13.57;;;;;;;23.90;66.77;99424.72;4972839;28;20227;-86
2022/07/17 02:04:31;;;;;;;15.20;13.70;;;;;;;21.48;66.34;99010.16;4973080;28;20629;-86
2022/07/17 02:06:57;;;;;;;14.73;13.20;;;;;;;23.39;66.81;99345.06;4973154;28;20174;-86
2022/07/17 02:09:23;;;;;;;14.23;12.57;;;;;;;23.65;67.79;99424.97;4973086;28;20172;-86
2022/07/17 02:11:49;;;;;;;14.50;13.00;;;;;;;21.72;68.54;99092.47;4988351;28;20196;-86
2022/07/17 02:14:15;;;;;;;13.77;12.27;;;;;;;23.51;68.92;99416.47;4976781;28;20251;-87
2022/07/17 02:16:40;;;;;;;13.57;12.10;;;;;;;23.42;68.66;99407.06;4976621;28;20199;-86
2022/07/17 02:19:06;;;;;;;14.17;12.23;;;;;;;20.43;69.72;98925.72;4976710;28;20170;-86
2022/07/17 02:21:31;;;;;;;15.53;12.87;;;;;;;20.45;70.66;98936.84;4975309;28;20558;-87
2022/07/17 02:23:56;;;;;;;17.03;13.23;;;;;;;21.74;70.57;99161.16;4976481;28;20168;-86
2022/07/17 02:26:22;;;;;;;13.63;12.20;;;;;;;19.82;70.29;98832.47;4976398;28;20182;-86
2022/07/17 02:28:47;;;;;;;14.43;11.97;;;;;;;20.32;69.25;98948.03;4976660;28;20254;-86
2022/07/17 02:31:13;;;;;;;13.17;11.87;;;;;;;21.54;69.31;99150.06;4991553;28;20176;-86
2022/07/17 02:33:39;;;;;;;13.40;11.90;;;;;;;23.09;70.63;99422.75;4976362;28;20629;-86
2022/07/17 02:36:05;;;;;;;17.27;12.53;;;;;;;20.98;70.93;99126.22;4976471;28;20287;-86
2022/07/17 02:38:31;;;;;;;14.53;12.30;;;;;;;20.43;71.87;99010.56;4991085;28;20414;-86
2022/07/17 02:40:56;;;;;;;13.20;12.00;;;;;;;22.81;72.89;99433.25;4976144;28;20176;-86
2022/07/17 02:43:21;;;;;;;13.43;12.07;;;;;;;20.42;73.85;99039.69;4976028;28;20624;-84
2022/07/17 02:45:47;;;;;;;15.43;12.33;;;;;;;21.27;74.39;99195.66;4975894;28;20617;-87
2022/07/17 02:48:12;;;;;;;13.50;12.10;;;;;;;19.78;74.44;98930.06;4975926;28;20168;-85
2022/07/17 02:50:38;;;;;;;13.30;11.80;;;;;;;22.33;73.66;99337.97;4975691;28;20164;-86
2022/07/17 02:53:03;;;;;;;13.77;12.27;;;;;;;22.53;73.29;99351.63;4976151;28;20202;-85
2022/07/17 02:55:29;;;;;;;13.63;12.23;;;;;;;22.77;74.55;99434.09;4975700;28;20175;-85
2022/07/17 02:57:54;;;;;;;13.83;12.10;;;;;;;22.03;74.92;99318.28;4975475;28;20226;-85
2022/07/17 03:00:20;;;;;;;14.03;12.53;;;;;;;20.09;74.42;98980.56;4990789;28;20271;-86
2022/07/17 03:02:46;;;;;;;14.00;12.07;;;;;;;21.17;74.03;99143.34;4975227;28;20228;-86
2022/07/17 03:05:14;;;;;;;15.53;13.10;;;;;;;21.43;73.77;99182.75;4975350;28;20582;-86
2022/07/17 03:07:40;;;;;;;14.70;13.13;;;;;;;22.94;74.30;99446.09;4975604;28;20168;-84
2022/07/17 03:10:07;;;;;;;14.60;12.57;;;;;;;22.77;74.78;99441.84;4978212;28;20168;-87
2022/07/17 03:12:32;;;;;;;14.10;12.70;;;;;;;22.20;79.62;99448.03;4976289;28;20247;-85
2022/07/17 03:14:58;;;;;;;14.17;12.77;;;;;;;19.80;79.29;99020.84;4976055;28;20197;-85
2022/07/17 03:17:23;;;;;;;14.23;12.83;;;;;;;20.58;78.72;99149.41;4974686;28;20180;-87
2022/07/17 03:19:49;;;;;;;14.47;12.97;;;;;;;21.63;79.96;99330.41;4975719;28;20175;-86
2022/07/17 03:22:14;;;;;;;14.37;12.97;;;;;;;20.37;84.70;99185.41;4976141;28;20192;-85
2022/07/17 03:24:40;;;;;;;14.53;13.00;;;;;;;19.84;84.88;99079.06;4974714;28;20562;-86
2022/07/17 03:27:05;;;;;;;15.00;13.40;;;;;;;21.65;89.89;99452.38;4976722;28;20169;-87
2022/07/17 03:29:31;;;;;;;14.67;13.10;;;;;;;19.27;91.10;99041.25;4977998;28;20176;-87
2022/07/17 03:31:56;;;;;;;14.97;12.90;;;;;;;19.16;90.99;99028.38;4977095;28;20170;-85
2022/07/17 03:34:22;;;;;;;16.03;13.13;;;;;;;21.22;90.61;99386.25;4992050;28;20564;-85
2022/07/17 03:36:48;;;;;;;14.50;13.00;;;;;;;19.91;89.66;99163.03;4980840;28;20227;-85
2022/07/17 03:39:13;;;;;;;14.50;13.00;;;;;;;21.15;89.32;99357.03;4993538;28;20567;-86
2022/07/17 03:41:39;;;;;;;13.93;12.17;;;;;;;20.03;86.46;99165.59;4978779;28;20207;-87
2022/07/17 03:44:04;;;;;;;13.30;12.00;;;;;;;19.93;84.47;99127.91;4979147;28;20243;-85
2022/07/17 03:46:30;;;;;;;14.83;11.47;;;;;;;22.06;82.96;99466.97;4977673;28;20699;-86
2022/07/17 03:48:55;;;;;;;12.60;11.30;;;;;;;20.60;81.26;99193.16;4977397;28;20179;-86
2022/07/17 03:51:21;;;;;;;12.10;10.37;;;;;;;19.98;79.43;99085.94;4977511;28;20160;-87
2022/07/17 03:53:46;;;;;;;14.43;10.63;;;;;;;21.80;78.37;99387.09;4977406;28;20552;-86
2022/07/17 03:56:11;;;;;;;11.43;9.03;;;;;;;20.91;75.06;99209.41;4977228;28;20175;-85
2022/07/17 03:58:37;;;;;;;10.10;8.93;;;;;;;21.24;74.37;99247.16;4992423;28;20178;-86
2022/07/17 04:01:02;;;;;;;11.43;9.40;;;;;;;20.69;74.36;99130.53;4977407;28;20164;-86
2022/07/17 04:03:28;;;;;;;11.13;10.00;;;;;;;22.04;74.37;99363.84;4976456;28;20176;-85
2022/07/17 04:05:53;;;;;;;13.23;10.37;;;;;;;21.91;74.05;99335.53;4977068;28;20167;-86
2022/07/17 04:08:19;;;;;;;12.30;10.57;;;;;;;22.51;73.25;99397.22;4975060;28;20598;-83
2022/07/17 04:10:45;;;;;;;16.87;10.90;;;;;;;22.52;71.99;99377.44;4975670;28;20164;-86
2022/07/17 04:13:11;;;;;;;16.43;11.30;;;;;;;22.94;71.23;99434.03;4974941;28;20179;-87
2022/07/17 04:15:56;;;;;;;14.70;11.57;;;;;;;22.01;71.17;99272.75;4975285;28;20196;-86
2022/07/17 04:18:30;;;;;;;14.37;11.30;;;;;;;21.95;72.00;99285.69;4974612;28;20280;-86
2022/07/17 04:20:59;;;;;;;12.40;10.73;;;;;;;22.95;72.05;99443.50;4989490;28;20183;-85
2022/07/17 04:23:26;;;;;;;13.67;11.50;;;;;;;21.49;71.66;99231.69;4974996;28;20156;-86
2022/07/17 04:25:52;;;;;;;14.10;11.53;;;;;;;22.65;72.30;99410.09;4974496;28;20258;-87
2022/07/17 04:28:18;;;;;;;13.50;11.07;;;;;;;22.22;72.18;99311.38;4974903;28;20181;-86
2022/07/17 04:30:43;;;;;;;12.73;10.37;;;;;;;22.02;70.92;99261.59;4975060;28;21097;-88
2022/07/17 04:33:09;;;;;;;11.00;9.90;;;;;;;22.33;70.09;99294.13;4989922;28;20671;-86
2022/07/17 04:35:34;;;;;;;11.33;10.13;;;;;;;23.03;69.36;99399.53;4974655;28;20168;-87
2022/07/17 04:38:00;;;;;;;11.47;9.70;;;;;;;22.59;68.83;99301.69;4974107;28;20164;-85
2022/07/17 04:40:26;;;;;;;10.33;9.07;;;;;;;22.70;67.00;99302.50;4974246;28;20208;-86
2022/07/17 04:42:51;;;;;;;10.50;9.37;;;;;;;22.01;66.49;99167.03;4974440;28;20196;-86
2022/07/17 04:45:17;;;;;;;9.87;8.87;;;;;;;23.55;65.63;99416.41;4974358;28;20284;-86
2022/07/17 04:47:42;;;;;;;10.83;8.90;;;;;;;23.96;65.07;99489.31;4974591;28;20168;-86
2022/07/17 04:50:09;;;;;;;14.37;8.40;;;;;;;22.54;64.37;99226.91;4974019;28;20255;-86
2022/07/17 04:52:34;;;;;;;9.03;8.03;;;;;;;24.40;63.85;99520.00;4989169;28;20172;-85
2022/07/17 04:55:00;;;;;;;12.60;8.40;;;;;;;24.02;63.54;99427.19;4973882;28;20538;-86
2022/07/17 04:57:25;;;;;;;8.70;7.80;;;;;;;24.76;61.57;99538.59;4974080;28;20164;-86
2022/07/17 04:59:51;;;;;;;8.37;7.47;;;;;;;23.02;60.62;99224.84;4973593;28;20304;-85
2022/07/17 05:02:16;;;;;;;7.80;7.00;;;;;;;24.89;58.66;99530.69;4973826;28;20744;-86
2022/07/17 05:04:42;;;;;;;7.97;7.17;;;;;;;23.05;58.92;99198.94;4973831;28;20164;-86
2022/07/17 05:07:07;;;;;;;8.27;7.17;;;;;;;24.16;57.41;99382.25;4976219;28;20164;-89
2022/07/17 05:09:33;;;;;;;8.73;6.80;;;;;;;24.34;56.81;99402.72;4989024;28;20179;-87
2022/07/17 05:11:58;;;;;;;6.90;6.03;;;;;;;23.62;55.24;99252.66;4973677;28;20171;-85
2022/07/17 05:14:23;;;;;;;6.80;6.20;;;;;;;24.52;53.70;99398.19;4974302;28;20171;-86
2022/07/17 05:16:49;;;;;;;11.43;6.50;;;;;;;22.43;54.39;99073.91;4974233;28;20590;-85
2022/07/17 05:19:14;;;;;;;6.80;6.10;;;;;;;25.42;53.49;99563.72;4973166;28;20278;-85
2022/07/17 05:21:40;;;;;;;7.00;6.30;;;;;;;24.22;53.42;99369.25;4989341;28;20195;-87
2022/07/17 05:24:05;;;;;;;7.80;6.60;;;;;;;23.64;53.36;99227.66;4974131;28;20243;-87
2022/07/17 05:26:31;;;;;;;7.63;6.17;;;;;;;25.01;53.01;99433.84;4973819;28;20637;-86
2022/07/17 05:28:56;;;;;;;7.27;6.00;;;;;;;23.41;53.28;99134.00;4974310;28;20224;-86
2022/07/17 05:31:21;;;;;;;8.53;6.20;;;;;;;24.55;51.94;99304.13;4974603;28;20164;-86
2022/07/17 05:33:47;;;;;;;8.87;5.83;;;;;;;25.42;50.65;99462.59;4975425;28;20168;-83
2022/07/17 05:36:12;;;;;;;8.00;6.30;;;;;;;24.39;50.74;99289.66;4976570;28;20178;-86
2022/07/17 05:38:38;;;;;;;10.33;6.80;;;;;;;25.21;50.45;99437.88;4973973;28;20156;-86
2022/07/17 05:41:04;;;;;;;7.77;6.20;;;;;;;25.78;50.06;99526.03;4974589;28;20174;-85
2022/07/17 05:43:29;;;;;;;7.60;6.60;;;;;;;24.21;49.79;99251.09;4981278;28;20172;-87
2022/07/17 05:45:56;;;;;;;8.30;6.63;;;;;;;24.37;49.32;99265.53;4996129;28;20175;-85
2022/07/17 05:48:22;;;;;;;9.50;6.10;;;;;;;26.64;48.77;99550.56;4980245;28;20569;-86
2022/07/17 05:50:47;;;;;;;8.23;6.07;;;;;;;26.45;49.18;99543.13;4976018;28;20172;-86
2022/07/17 05:53:14;;;;;;;7.47;6.17;;;;;;;24.93;48.55;99268.16;4988727;28;20160;-86
2022/07/17 05:55:40;;;;;;;8.17;5.83;;;;;;;24.94;48.44;99293.16;4973304;28;20167;-87
2022/07/17 05:58:05;;;;;;;6.30;5.50;;;;;;;24.54;48.02;99233.34;4973493;28;20199;-85
2022/07/17 06:00:31;;;;;;;6.73;5.90;;;;;;;26.69;47.83;99584.22;4973189;28;20625;-86
2022/07/17 06:02:56;;;;;;;6.70;5.40;;;;;;;25.65;48.60;99408.69;4973556;28;20238;-85
2022/07/17 06:05:21;;;;;;;6.30;5.60;;;;;;;26.23;47.67;99493.31;4973443;28;20174;-85
2022/07/17 06:07:50;;;;;;;7.78;5.30;;;;;;;27.13;46.56;99554.81;4973223;28;20950;-90
2022/07/17 06:10:16;;;;;;;7.17;5.47;;;;;;;27.29;46.52;99575.25;4977327;28;20161;-89
2022/07/17 06:12:44;;;;;;;6.32;4.78;;;;;;;26.55;44.37;99375.84;4988592;28;20562;-87
2022/07/17 06:15:10;;;;;;;7.07;4.40;;;;;;;27.43;42.99;99554.19;4974189;28;20179;-84
2022/07/17 06:17:35;;;;;;;4.93;4.30;;;;;;;26.72;42.64;99442.16;4973758;28;20182;-84
2022/07/17 06:20:01;;;;;;;7.38;4.40;;;;;;;26.76;42.35;99497.47;4973589;28;20552;-87
2022/07/17 06:22:26;;;;;;;4.53;4.13;;;;;;;25.81;42.60;99341.81;4973114;28;20205;-86
2022/07/17 06:24:52;;;;;;;4.97;4.30;;;;;;;25.97;41.87;99386.50;4973498;28;20174;-85
2022/07/17 06:27:17;;;;;;;6.28;4.28;;;;;;;26.68;42.33;99461.25;4973757;28;20252;-86
2022/07/17 06:29:43;;;;;;;6.88;4.47;;;;;;;25.51;41.59;99226.56;4971720;28;20185;-87
2022/07/17 06:32:08;;;;;;;5.72;4.10;;;;;;;27.65;42.12;99565.81;4973076;28;20171;-87
2022/07/17 06:34:33;;;;;;;5.35;4.10;;;;;;;27.95;41.70;99570.31;4976222;28;20175;-84
2022/07/17 06:36:59;;;;;;;6.88;4.10;;;;;;;25.64;40.85;99189.13;4972698;28;20173;-87
2022/07/17 06:39:24;;;;;;;5.35;3.92;;;;;;;27.00;39.76;99460.66;4972698;28;20603;-87
2022/07/17 06:41:50;;;;;;;10.07;3.80;;;;;;;26.06;40.09;99282.53;4972873;28;20190;-87
2022/07/17 06:44:15;;;;;;;4.63;3.90;;;;;;;25.14;40.01;99078.66;4971372;28;20183;-87
2022/07/17 06:46:40;;;;;;;5.55;3.80;;;;;;;26.72;39.41;99329.59;4972500;28;20684;-86
2022/07/17 06:49:06;;;;;;;5.35;3.88;;;;;;;28.05;38.67;99500.66;4972828;28;20169;-86
2022/07/17 06:51:32;;;;;;;7.03;4.57;;;;;;;28.84;38.75;99574.16;4987497;28;20178;-87
2022/07/17 06:53:57;;;;;;;7.03;4.07;;;;;;;27.50;37.31;99369.31;4973103;28;20240;-86
2022/07/17 06:56:23;;;;;;;5.85;3.92;;;;;;;28.10;37.80;99472.81;4972803;28;20602;-86
2022/07/17 06:58:48;;;;;;;4.60;4.00;;;;;;;26.10;38.62;99177.75;4974157;28;20169;-86
2022/07/17 07:01:13;;;;;;;5.53;3.95;;;;;;;28.31;37.74;99513.88;4990727;28;20178;-87
2022/07/17 07:03:39;;;;;;;4.38;3.97;;;;;;;28.48;37.44;99495.22;4976405;28;20162;-84
2022/07/17 07:06:04;;;;;;;5.28;4.13;;;;;;;28.15;38.39;99473.53;4965033;28;20197;-87
2022/07/17 07:08:30;;;;;;;5.40;3.80;;;;;;;26.89;37.87;99187.19;4986697;28;20196;-86
2022/07/17 07:10:55;;;;;;;6.60;4.30;;;;;;;28.65;37.54;99475.63;4972776;28;20559;-86
2022/07/17 07:13:21;;;;;;;6.85;4.50;;;;;;;26.71;37.70;99178.06;4974661;28;20162;-86
2022/07/17 07:15:46;;;;;;;6.60;4.55;;;;;;;27.88;37.35;99419.53;4975213;28;20195;-86
2022/07/17 07:18:12;;;;;;;5.22;3.90;;;;;;;27.15;37.99;99332.06;4959682;28;20582;-86
2022/07/17 07:20:38;;;;;;;4.47;4.07;;;;;;;28.42;38.01;99505.78;4955803;28;20183;-87
2022/07/17 07:23:04;;;;;;;6.20;4.10;;;;;;;26.37;37.11;99053.41;4955692;28;20538;-85
2022/07/17 07:25:30;;;;;;;7.75;5.05;;;;;;;29.10;37.31;99514.31;4971024;28;20261;-86
2022/07/17 07:27:55;;;;;;;7.70;4.65;;;;;;;28.60;36.41;99391.50;4956308;28;20311;-86
2022/07/17 07:30:21;;;;;;;6.20;3.70;;;;;;;27.67;35.90;99313.41;4955927;29;20244;-86
2022/07/17 07:32:46;;;;;;;6.00;3.85;;;;;;;28.47;35.77;99404.91;4955792;28;20164;-85
2022/07/17 07:35:12;;;;;;;5.40;4.00;;;;;;;29.15;35.92;99481.97;4956144;28;20192;-86
2022/07/17 07:37:37;;;;;;;7.75;4.40;;;;;;;28.09;35.43;99291.44;4956095;28;20547;-86
2022/07/17 07:40:04;;;;;;;5.53;3.40;;;;;;;28.90;35.05;99474.94;4955517;28;20173;-87
2022/07/17 07:42:29;;;;;;;6.75;4.25;;;;;;;28.14;35.87;99284.34;4955875;28;20206;-87
2022/07/17 07:44:55;;;;;;;7.75;4.10;;;;;;;28.23;34.76;99307.53;4970366;28;20176;-86
2022/07/17 07:47:20;;;;;;;7.60;4.05;;;;;;;29.53;35.39;99423.41;4955736;29;20587;-88
2022/07/17 07:49:46;;;;;;;4.95;4.10;;;;;;;28.49;34.34;99239.00;4955863;28;20224;-87
2022/07/17 07:52:11;;;;;;;4.78;3.88;;;;;;;28.53;34.18;99326.59;4955576;28;20636;-87
2022/07/17 07:54:37;;;;;;;4.30;3.70;;;;;;;29.57;33.41;99521.56;4955715;29;20176;-86
2022/07/17 07:57:03;;;;;;;5.97;3.70;;;;;;;27.63;33.69;99228.53;4955675;28;20166;-86
2022/07/17 07:59:32;;;;;;;4.43;3.83;;;;;;;28.19;33.99;99339.75;4955440;29;20172;-86
2022/07/17 08:01:58;;;;;;;6.45;3.67;;;;;;;28.50;34.19;99342.31;4955241;28;20601;-88
2022/07/17 08:04:23;;;;;;;6.78;3.83;;;;;;;28.97;33.89;99366.97;4955327;29;20163;-86
2022/07/17 08:06:49;;;;;;;7.75;3.90;;;;;;;29.11;32.48;99380.41;4955429;28;20166;-86
2022/07/17 08:09:14;;;;;;;4.85;3.88;;;;;;;30.32;33.77;99539.16;4955438;28;20167;-87
2022/07/17 08:11:39;;;;;;;4.78;3.85;;;;;;;30.59;33.17;99587.03;4969531;28;20663;-87
2022/07/17 08:14:05;;;;;;;5.18;3.80;;;;;;;29.20;33.27;99305.31;4953809;28;20243;-86
2022/07/17 08:16:30;;;;;;;7.50;4.10;;;;;;;28.60;31.78;99180.44;4955130;29;20176;-86
2022/07/17 08:18:56;;;;;;;5.40;4.28;;;;;;;30.49;30.44;99423.56;4955391;28;20226;-86
2022/07/17 08:21:22;;;;;;;4.80;3.90;;;;;;;31.73;30.35;99617.72;4955850;28;20256;-84
2022/07/17 08:23:49;;;;;;;4.25;3.75;;;;;;;30.99;29.92;99466.16;4970369;28;20203;-89
2022/07/17 08:26:14;;;;;;;4.72;3.50;;;;;;;30.29;30.34;99334.59;4953464;29;20182;-86
2022/07/17 08:28:40;;;;;;;3.85;3.40;;;;;;;30.13;29.78;99296.91;4955212;28;20222;-88
2022/07/17 08:31:05;;;;;;;9.15;4.10;;;;;;;31.52;30.88;99506.00;4955167;28;20185;-87
2022/07/17 08:33:31;;;;;;;4.10;3.70;;;;;;;29.77;30.33;99289.47;4955164;28;20612;-85
2022/07/17 08:35:56;;;;;;;6.25;3.60;;;;;;;29.52;31.46;99246.88;4954948;28;20227;-88
2022/07/17 08:38:22;;;;;;;5.10;3.70;;;;;;;30.27;31.10;99332.03;4955910;29;20225;-87
2022/07/17 08:40:49;;;;;;;8.23;3.40;;;;;;;30.22;30.78;99370.53;4954682;28;20176;-87
2022/07/17 08:43:16;;;;;;;6.43;3.70;;;;;;;31.37;30.27;99527.50;4955013;28;20198;-87
2022/07/17 08:45:43;;;;;;;8.30;3.90;;;;;;;32.44;30.06;99593.03;4954812;28;20170;-87
2022/07/17 08:48:13;;;;;;;6.20;3.97;;;;;;;30.85;30.63;99320.22;4955283;28;20183;-90
2022/07/17 08:50:39;;;;;;;4.00;3.60;;;;;;;31.97;29.58;99593.19;4970176;28;20183;-87
2022/07/17 08:53:04;;;;;;;5.63;3.60;;;;;;;30.83;30.21;99337.75;4955884;28;20192;-86
2022/07/17 08:55:30;;;;;;;10.07;4.20;;;;;;;31.78;31.04;99528.53;4955315;29;20224;-89
2022/07/17 08:57:56;;;;;;;5.15;3.92;;;;;;;32.89;29.42;99600.72;4955181;28;20175;-85
2022/07/17 09:00:23;;;;;;;3.75;3.45;;;;;;;32.58;29.25;99591.53;4955028;29;20191;-85
2022/07/17 09:02:53;;;;;;;5.85;3.60;;;;;;;32.24;29.97;99603.50;4969372;28;20334;-86
2022/07/17 09:05:25;;;;;;;6.15;3.90;;;;;;;29.81;30.08;99178.84;4954854;28;20180;-86
2022/07/17 09:07:51;;;;;;;5.80;3.63;;;;;;;31.67;29.33;99590.94;4954822;28;20700;-87
2022/07/17 09:10:16;;;;;;;4.85;3.38;;;;;;;29.20;30.38;99234.91;4954323;29;20207;-88
2022/07/17 09:12:42;;;;;;;9.63;4.13;;;;;;;31.88;29.98;99592.69;4955558;28;20164;-85
2022/07/17 09:15:19;;;;;;;6.80;3.97;;;;;;;32.31;29.62;99592.69;4958328;28;20179;-88
2022/07/17 09:17:52;;;;;;;8.20;3.90;;;;;;;32.40;29.24;99588.81;4958808;28;20711;-88
2022/07/17 09:20:20;;;;;;;6.80;4.10;;;;;;;30.26;29.26;99348.63;4961232;28;20648;-86
2022/07/17 09:22:59;;;;;;;4.00;3.65;;;;;;;32.34;28.26;99602.19;4955145;28;20188;-90
2022/07/17 09:25:38;;;;;;;5.32;3.90;;;;;;;32.40;28.52;99525.91;4955096;28;20239;-87
2022/07/17 09:28:06;;;;;;;4.47;3.40;;;;;;;30.06;28.20;99170.91;4954858;28;20254;-87
2022/07/17 09:30:32;;;;;;;7.63;5.35;;;;;;;31.78;27.55;99411.50;4954878;29;20199;-86
2022/07/17 09:32:58;;;;;;;9.43;3.70;;;;;;;32.63;27.95;99520.56;4954514;29;20184;-88
2022/07/17 09:35:24;;;;;;;5.65;3.70;;;;;;;33.00;27.06;99519.75;4955447;28;20169;-87
2022/07/17 09:37:54;;;;;;;5.68;4.00;;;;;;;33.04;27.97;99597.41;4953881;29;20235;-87
2022/07/17 09:43:10;;;;;;;5.95;3.85;;;;;;;32.21;27.85;99480.44;4952600;29;20208;-88
2022/07/17 09:45:36;;;;;;;7.47;3.60;;;;;;;33.41;26.95;99602.72;4952704;29;20227;-87
2022/07/17 09:48:02;;;;;;;5.13;4.15;;;;;;;32.77;27.01;99475.38;4952014;29;20188;-89
2022/07/17 09:50:28;;;;;;;9.55;4.85;;;;;;;31.19;27.12;99215.09;4951807;29;20292;-89
2022/07/17 09:52:57;;;;;;;6.97;4.50;;;;;;;32.86;27.32;99512.50;4952565;29;20161;-88
2022/07/17 09:55:30;;;;;;;7.93;5.38;;;;;;;31.07;28.03;99330.69;4953868;29;20200;-88
2022/07/17 09:57:58;;;;;;;9.43;6.88;;;;;;;31.08;27.57;99342.03;4935751;29;20764;-89
2022/07/17 10:00:24;;;;;;;6.18;5.57;;;;;;;32.90;27.84;99607.66;4952386;29;20196;-88
2022/07/17 10:02:50;;;;;;;5.70;4.60;;;;;;;32.80;28.47;99604.56;4951677;29;20239;-89
2022/07/17 10:05:16;;;;;;;5.18;4.07;;;;;;;31.79;28.87;99519.72;4952152;29;20177;-86
2022/07/17 10:07:45;;;;;;;5.15;3.83;;;;;;;32.19;27.88;99561.75;4952095;29;20214;-86
2022/07/17 10:10:12;;;;;;;5.00;3.88;;;;;;;30.80;28.09;99358.78;4952049;29;20204;-89
2022/07/17 10:12:40;;;;;;;6.03;4.15;;;;;;;30.58;27.84;99302.16;4951936;29;20230;-87
2022/07/17 10:15:07;;;;;;;5.10;3.88;;;;;;;32.71;27.70;99560.41;4952090;29;20169;-86
2022/07/17 10:17:33;;;;;;;6.72;4.25;;;;;;;31.67;27.33;99314.25;4952497;29;20216;-88
2022/07/17 10:19:58;;;;;;;5.80;3.90;;;;;;;32.27;27.70;99488.91;4952588;29;20197;-85
2022/07/17 10:22:25;;;;;;;5.05;4.53;;;;;;;32.68;28.09;99578.91;4952447;29;20292;-87
2022/07/17 10:24:56;;;;;;;4.50;4.10;;;;;;;31.30;28.42;99342.84;4953931;29;20243;-87
2022/07/17 10:27:24;;;;;;;5.38;3.83;;;;;;;33.07;28.55;99576.31;4956169;28;20244;-88
2022/07/17 10:30:09;;;;;;;4.35;3.95;;;;;;;32.76;28.78;99568.94;4954768;28;20172;-86
2022/07/17 10:32:36;;;;;;;5.90;3.92;;;;;;;32.70;29.09;99574.44;4953889;28;20168;-87
2022/07/17 10:35:08;;;;;;;5.68;4.13;;;;;;;32.71;28.45;99575.28;4957535;28;20656;-87
2022/07/17 10:37:36;;;;;;;4.50;3.80;;;;;;;33.39;25.81;99577.47;4957668;28;20192;-87
2022/07/17 10:40:14;;;;;;;4.53;3.60;;;;;;;33.76;25.52;99564.34;4956377;29;20184;-87
2022/07/17 10:43:06;;;;;;;4.40;3.40;;;;;;;33.01;25.60;99446.22;4958044;29;20295;-86
2022/07/17 10:45:34;;;;;;;6.30;4.05;;;;;;;33.55;25.58;99560.06;4955231;29;20859;-86
2022/07/17 10:48:03;;;;;;;10.25;7.65;;;;;;;33.66;25.96;99568.31;4939241;29;20761;-87
2022/07/17 10:50:36;;;;;;;5.55;3.95;;;;;;;33.71;26.50;99566.31;4954706;29;20193;-86
2022/07/17 10:53:29;;;;;;;4.10;3.70;;;;;;;33.71;27.33;99553.19;4954827;29;20180;-86
2022/07/17 10:56:21;;;;;;;5.20;3.78;;;;;;;33.72;25.83;99553.13;4879193;29;20208;-86
2022/07/17 10:58:46;;;;;;;6.53;4.05;;;;;;;33.39;26.85;99496.06;4823938;29;20201;-88
2022/07/17 11:01:14;;;;;;;5.22;3.70;;;;;;;32.77;26.56;99434.25;4823247;29;20193;-86
2022/07/17 11:03:47;;;;;;;4.53;3.58;;;;;;;33.45;27.08;99537.78;4823264;29;20304;-86
2022/07/17 11:06:15;;;;;;;4.97;3.80;;;;;;;33.54;26.23;99547.88;4823387;29;20683;-84
2022/07/17 11:08:57;;;;;;;10.93;4.20;;;;;;;33.18;25.06;99501.41;4823468;29;20193;-86
2022/07/17 11:11:43;;;;;;;5.50;3.60;;;;;;;33.45;25.60;99543.91;4823686;29;20184;-86
2022/07/17 11:14:20;;;;;;;5.82;3.72;;;;;;;33.61;24.91;99547.53;4823362;29;20663;-87
2022/07/17 11:16:52;;;;;;;5.55;4.68;;;;;;;33.97;25.13;99537.00;4822985;29;20220;-88
2022/07/17 11:19:31;;;;;;;7.03;5.05;;;;;;;34.17;24.74;99528.16;4825971;29;20296;-86
2022/07/17 11:21:58;;;;;;;4.05;3.40;;;;;;;34.44;24.49;99541.69;4823012;29;20734;-86
2022/07/17 11:24:25;;;;;;;5.40;4.05;;;;;;;33.60;24.78;99395.25;4823128;29;20230;-86
2022/07/17 11:26:51;;;;;;;3.70;3.30;;;;;;;32.24;24.43;99166.72;4823099;29;20197;-86